createdAt,value
2023-03-18T00:01:16.053Z,26.80
2023-03-18T00:06:20.388Z,24.60
2023-03-18T00:11:23.008Z,27.67
2023-03-18T00:16:27.402Z,23.35
2023-03-18T00:21:31.603Z,22.33
2023-03-18T00:26:34.014Z,27.00
2023-03-18T00:31:38.535Z,28.65
2023-03-18T00:36:45.931Z,24.35
2023-03-18T00:41:48.784Z,26.25
2023-03-18T00:46:51.622Z,24.70
2023-03-18T00:51:54.562Z,26.70
2023-03-18T00:56:57.970Z,27.35
2023-03-18T01:02:04.172Z,25.92
2023-03-18T01:07:06.810Z,24.65
2023-03-18T01:12:12.175Z,25.48
2023-03-18T01:17:17.488Z,23.25
2023-03-18T01:22:19.996Z,29.20
2023-03-18T01:27:25.741Z,23.85
2023-03-18T01:32:29.007Z,25.40
2023-03-18T01:37:32.312Z,33.33
2023-03-18T01:42:53.250Z,26.15
2023-03-18T01:47:58.539Z,23.33
2023-03-18T01:53:10.298Z,22.17
2023-03-18T01:58:20.414Z,24.35
2023-03-18T02:03:23.026Z,24.33
2023-03-18T02:08:25.960Z,23.25
2023-03-18T02:13:29.067Z,25.67
2023-03-18T02:18:37.812Z,24.83
2023-03-18T02:23:52.774Z,24.77
2023-03-18T02:28:57.786Z,27.33
2023-03-18T02:34:02.757Z,23.90
2023-03-18T02:39:05.741Z,23.52
2023-03-18T02:44:11.816Z,25.90
2023-03-18T02:49:27.827Z,23.85
2023-03-18T02:54:32.056Z,25.67
2023-03-18T02:59:34.696Z,23.25
2023-03-18T03:04:40.987Z,25.85
2023-03-18T03:09:43.827Z,25.23
2023-03-18T03:14:46.757Z,30.90
2023-03-18T03:19:52.349Z,25.20
2023-03-18T03:24:54.921Z,29.27
2023-03-18T03:29:57.535Z,29.20
2023-03-18T03:34:59.855Z,30.85
2023-03-18T03:40:02.283Z,26.00
2023-03-18T03:45:08.636Z,25.55
2023-03-18T03:50:13.362Z,20.60
2023-03-18T03:55:21.913Z,24.25
2023-03-18T04:00:26.563Z,23.38
2023-03-18T04:05:29.815Z,21.65
2023-03-18T04:10:36.912Z,22.92
2023-03-18T04:15:41.656Z,26.77
2023-03-18T04:20:50.961Z,22.85
2023-03-18T04:26:12.947Z,27.13
2023-03-18T04:31:16.877Z,20.85
2023-03-18T04:41:23.798Z,16.50
2023-03-18T04:46:30.407Z,21.90
2023-03-18T04:51:33.663Z,24.08
2023-03-18T04:56:39.632Z,24.10
2023-03-18T05:01:42.779Z,24.70
2023-03-18T05:06:46.849Z,23.05
2023-03-18T05:11:50.851Z,23.85
2023-03-18T05:16:59.004Z,21.00
2023-03-18T05:22:03.102Z,23.75
2023-03-18T05:27:06.789Z,24.77
2023-03-18T05:32:15.228Z,23.50
2023-03-18T05:42:36.690Z,21.73
2023-03-18T05:47:44.511Z,26.38
2023-03-18T05:52:48.851Z,19.25
2023-03-18T05:58:00.487Z,19.48
2023-03-18T06:03:04.616Z,22.13
2023-03-18T06:08:08.141Z,24.05
2023-03-18T06:13:13.202Z,23.10
2023-03-18T06:23:20.961Z,24.23
2023-03-18T06:28:24.931Z,25.42
2023-03-18T06:33:30.215Z,25.63
2023-03-18T06:38:33.252Z,28.55
2023-03-18T06:43:36.072Z,28.87
2023-03-18T06:48:44.755Z,23.10
2023-03-18T06:53:51.446Z,27.05
2023-03-18T07:04:00.738Z,20.77
2023-03-18T07:09:04.880Z,21.73
2023-03-18T07:14:08.982Z,33.03
2023-03-18T07:19:13.232Z,42.33
2023-03-18T07:24:21.725Z,39.83
2023-03-18T07:29:28.655Z,27.38
2023-03-18T07:34:31.922Z,20.17
2023-03-18T07:39:34.973Z,19.90
2023-03-18T07:44:38.127Z,19.00
2023-03-18T07:49:42.640Z,20.58
2023-03-18T07:54:48.488Z,16.55
2023-03-18T07:59:56.685Z,16.00
2023-03-18T08:04:59.852Z,20.13
2023-03-18T08:10:03.072Z,33.80
2023-03-18T08:15:07.871Z,23.80
2023-03-18T08:20:12.523Z,22.63
2023-03-18T08:25:16.721Z,21.38
2023-03-18T08:30:19.747Z,18.30
2023-03-18T08:35:22.336Z,13.55
2023-03-18T08:40:26.335Z,12.77
2023-03-18T08:45:29.012Z,11.55
2023-03-18T08:50:31.761Z,10.03
2023-03-18T08:55:37.359Z,17.67
2023-03-18T09:00:42.019Z,12.07
2023-03-18T09:05:48.435Z,11.20
2023-03-18T09:10:53.784Z,11.52
2023-03-18T09:15:56.550Z,17.63
2023-03-18T09:20:59.674Z,15.02
2023-03-18T09:26:02.760Z,13.05
2023-03-18T09:31:06.231Z,12.73
2023-03-18T09:36:10.189Z,12.52
2023-03-18T09:41:12.801Z,14.68
2023-03-18T09:46:22.048Z,21.17
2023-03-18T09:51:44.754Z,18.58
2023-03-18T09:56:47.649Z,16.73
2023-03-18T10:01:54.661Z,17.35
2023-03-18T10:07:05.553Z,14.65
2023-03-18T10:12:38.152Z,13.77
2023-03-18T10:18:01.688Z,16.27
2023-03-18T10:23:30.380Z,15.18
2023-03-18T10:28:50.238Z,28.15
2023-03-18T10:34:02.165Z,13.18
2023-03-18T10:39:13.798Z,8.98
2023-03-18T10:44:20.672Z,11.63
2023-03-18T10:49:27.188Z,12.38
2023-03-18T10:54:46.891Z,8.35
2023-03-18T10:59:51.490Z,12.55
2023-03-18T11:04:57.509Z,13.63
2023-03-18T11:10:17.139Z,13.40
2023-03-18T11:15:20.867Z,12.77
2023-03-18T11:20:37.566Z,11.82
2023-03-18T11:25:40.811Z,12.43
2023-03-18T11:31:01.954Z,11.82
2023-03-18T11:40:27.069Z,28.45
2023-03-18T11:45:55.481Z,13.30
2023-03-18T11:51:14.331Z,46.03
2023-03-18T11:56:39.843Z,12.80
2023-03-18T12:02:00.385Z,12.98
2023-03-18T12:07:26.719Z,37.13
2023-03-18T12:12:49.097Z,15.82
2023-03-18T12:18:20.706Z,13.32
2023-03-18T12:23:49.717Z,12.23
2023-03-18T12:29:09.838Z,19.63
2023-03-18T12:34:40.879Z,12.85
2023-03-18T12:40:28.168Z,12.80
2023-03-18T12:45:35.037Z,19.98
2023-03-18T12:50:50.547Z,21.77
2023-03-18T12:55:57.105Z,19.35
2023-03-18T13:01:08.132Z,12.63
2023-03-18T13:06:19.589Z,29.75
2023-03-18T13:11:52.279Z,18.85
2023-03-18T13:16:55.621Z,16.77
2023-03-18T13:22:50.722Z,17.80
2023-03-18T13:28:13.636Z,15.35
2023-03-18T13:33:47.802Z,50.30
2023-03-18T13:40:06.697Z,28.60
2023-03-18T13:45:22.707Z,51.58
2023-03-18T13:50:34.871Z,28.08
2023-03-18T13:55:46.721Z,66.72
2023-03-18T14:01:15.697Z,53.38
2023-03-18T14:06:22.287Z,32.35
2023-03-18T14:11:26.121Z,47.03
2023-03-18T14:16:38.920Z,39.13
2023-03-18T14:21:52.580Z,19.48
2023-03-18T14:27:03.867Z,15.38
2023-03-18T14:32:33.840Z,14.95
2023-03-18T14:37:56.775Z,15.45
2023-03-18T14:43:08.422Z,17.75
2023-03-18T14:48:17.908Z,14.93
2023-03-18T14:53:29.925Z,45.50
2023-03-18T14:58:36.569Z,91.80
2023-03-18T15:03:44.578Z,59.72
2023-03-18T15:09:09.950Z,197.13
2023-03-18T15:14:24.638Z,78.47
2023-03-18T15:19:30.717Z,22.20
2023-03-18T15:24:33.820Z,13.93
2023-03-18T15:29:38.873Z,14.38
2023-03-18T15:34:43.536Z,18.98
2023-03-18T15:39:46.248Z,24.92
2023-03-18T15:45:10.313Z,16.37
2023-03-18T15:50:34.476Z,18.90
2023-03-18T15:55:49.206Z,36.08
2023-03-18T16:00:53.003Z,25.98
2023-03-18T16:05:55.603Z,45.90
2023-03-18T16:11:01.309Z,45.28
2023-03-18T16:16:04.261Z,44.03
2023-03-18T16:21:07.019Z,61.80
2023-03-18T16:26:15.859Z,63.03
2023-03-18T16:31:19.065Z,50.50
2023-03-18T16:36:30.649Z,55.13
2023-03-18T16:41:33.006Z,63.03
2023-03-18T16:46:35.888Z,41.30
2023-03-18T16:51:38.552Z,34.22
2023-03-18T16:56:41.602Z,38.60
2023-03-18T17:01:48.049Z,89.22
2023-03-18T17:06:52.346Z,66.40
2023-03-18T17:11:59.350Z,69.68
2023-03-18T17:17:07.158Z,72.85
2023-03-18T17:22:30.742Z,75.07
2023-03-18T17:27:44.360Z,70.43
2023-03-18T17:32:50.673Z,56.10
2023-03-18T17:37:54.750Z,70.20
2023-03-18T17:43:00.303Z,86.82
2023-03-18T17:48:26.137Z,116.78
2023-03-18T17:53:43.213Z,112.38
2023-03-18T17:58:49.677Z,164.82
2023-03-18T18:03:52.391Z,114.88
2023-03-18T18:09:00.351Z,115.40
2023-03-18T18:14:23.673Z,220.07
2023-03-18T18:19:29.069Z,210.75
2023-03-18T18:24:33.503Z,300.55
2023-03-18T18:29:39.168Z,203.07
2023-03-18T18:34:42.521Z,87.25
2023-03-18T18:39:45.505Z,139.18
2023-03-18T18:44:48.232Z,152.55
2023-03-18T18:49:51.204Z,118.43
2023-03-18T18:54:53.672Z,71.50
2023-03-18T19:05:00.987Z,66.03
2023-03-18T19:10:04.617Z,61.78
2023-03-18T19:15:07.986Z,62.20
2023-03-18T19:20:39.675Z,59.67
2023-03-18T19:25:42.257Z,56.65
2023-03-18T19:30:44.940Z,59.53
2023-03-18T19:35:47.511Z,52.83
2023-03-18T19:40:50.514Z,64.40
2023-03-18T19:45:53.821Z,66.88
2023-03-18T19:50:57.949Z,63.88
2023-03-18T19:56:01.426Z,52.70
2023-03-18T20:01:04.780Z,58.33
2023-03-18T20:06:08.171Z,39.00
2023-03-18T20:11:18.208Z,115.30
2023-03-18T20:16:22.025Z,120.97
2023-03-18T20:21:31.019Z,127.38
2023-03-18T20:26:33.535Z,129.68
2023-03-18T20:31:38.692Z,118.20
2023-03-18T20:36:42.638Z,79.03
2023-03-18T20:41:45.082Z,67.63
2023-03-18T20:46:47.954Z,47.55
2023-03-18T20:51:50.929Z,44.73
2023-03-18T20:56:53.645Z,36.85
2023-03-18T21:01:56.274Z,33.42
2023-03-18T21:06:58.618Z,35.30
2023-03-18T21:12:01.091Z,35.42
2023-03-18T21:22:12.463Z,40.70
2023-03-18T21:27:21.146Z,40.25
2023-03-18T21:32:29.988Z,51.08
2023-03-18T21:37:32.557Z,41.22
2023-03-18T21:42:36.705Z,48.47
2023-03-18T21:47:39.743Z,48.92
2023-03-18T21:52:42.724Z,55.85
2023-03-18T21:57:48.601Z,58.37
2023-03-18T22:02:51.738Z,58.03
2023-03-18T22:07:54.314Z,57.30
2023-03-18T22:12:56.912Z,53.03
2023-03-18T22:17:59.292Z,54.70
2023-03-18T22:23:09.570Z,54.10
2023-03-18T22:28:12.530Z,68.80
2023-03-18T22:33:26.339Z,79.35
2023-03-18T22:43:34.958Z,145.00
2023-03-18T22:48:37.992Z,127.65
2023-03-18T22:53:41.354Z,120.53
2023-03-18T23:03:47.806Z,92.82
2023-03-18T23:08:51.697Z,76.95
2023-03-18T23:13:56.709Z,72.03
2023-03-18T23:18:59.755Z,66.97
2023-03-18T23:24:07.615Z,65.88
2023-03-18T23:29:10.063Z,59.97
2023-03-18T23:34:12.657Z,52.95
2023-03-18T23:39:15.509Z,49.87
2023-03-18T23:44:17.968Z,50.53
2023-03-18T23:49:24.779Z,45.40
2023-03-18T23:54:27.718Z,44.55
2023-03-18T23:59:30.863Z,47.90
